sensor_id;sensor_type;location;lat;lon;timestamp;P1;durP1;ratioP1;P2;durP2;ratioP2
17993;SDS011;9122;48.406;9.984;2023-07-20T00:02:19;0.95;;;0.95;;
17993;SDS011;9122;48.406;9.984;2023-07-20T00:05:03;3.45;;;1.20;;
17993;SDS011;9122;48.406;9.984;2023-07-20T00:07:48;1.38;;;1.20;;
17993;SDS011;9122;48.406;9.984;2023-07-20T00:10:36;1.27;;;1.17;;
17993;SDS011;9122;48.406;9.984;2023-07-20T00:13:20;1.38;;;1.30;;
17993;SDS011;9122;48.406;9.984;2023-07-20T00:16:05;1.00;;;1.00;;
17993;SDS011;9122;48.406;9.984;2023-07-20T00:18:50;1.40;;;1.30;;
17993;SDS011;9122;48.406;9.984;2023-07-20T00:21:34;1.70;;;1.50;;
17993;SDS011;9122;48.406;9.984;2023-07-20T00:24:19;1.63;;;1.52;;
17993;SDS011;9122;48.406;9.984;2023-07-20T00:27:03;1.48;;;1.38;;
17993;SDS011;9122;48.406;9.984;2023-07-20T00:29:48;2.95;;;1.52;;
17993;SDS011;9122;48.406;9.984;2023-07-20T00:32:32;0.98;;;0.98;;
17993;SDS011;9122;48.406;9.984;2023-07-20T00:35:16;1.10;;;1.10;;
17993;SDS011;9122;48.406;9.984;2023-07-20T00:38:01;1.38;;;1.27;;
17993;SDS011;9122;48.406;9.984;2023-07-20T00:40:46;1.63;;;1.52;;
17993;SDS011;9122;48.406;9.984;2023-07-20T00:43:31;3.45;;;1.40;;
17993;SDS011;9122;48.406;9.984;2023-07-20T00:46:16;1.52;;;1.42;;
17993;SDS011;9122;48.406;9.984;2023-07-20T00:49:00;2.08;;;1.98;;
17993;SDS011;9122;48.406;9.984;2023-07-20T00:51:45;2.70;;;1.63;;
17993;SDS011;9122;48.406;9.984;2023-07-20T00:54:29;3.95;;;1.45;;
17993;SDS011;9122;48.406;9.984;2023-07-20T00:57:16;1.45;;;1.42;;
17993;SDS011;9122;48.406;9.984;2023-07-20T01:00:02;2.67;;;1.40;;
17993;SDS011;9122;48.406;9.984;2023-07-20T01:02:47;1.90;;;1.67;;
17993;SDS011;9122;48.406;9.984;2023-07-20T01:12:26;5.40;;;1.73;;
17993;SDS011;9122;48.406;9.984;2023-07-20T01:15:14;3.70;;;1.58;;
17993;SDS011;9122;48.406;9.984;2023-07-20T01:17:58;3.28;;;1.50;;
17993;SDS011;9122;48.406;9.984;2023-07-20T01:20:44;2.00;;;1.75;;
17993;SDS011;9122;48.406;9.984;2023-07-20T01:23:48;1.88;;;1.77;;
17993;SDS011;9122;48.406;9.984;2023-07-20T01:33:19;1.92;;;1.63;;
17993;SDS011;9122;48.406;9.984;2023-07-20T01:36:04;2.47;;;1.80;;
17993;SDS011;9122;48.406;9.984;2023-07-20T01:38:51;2.17;;;1.90;;
17993;SDS011;9122;48.406;9.984;2023-07-20T01:41:36;2.38;;;1.88;;
17993;SDS011;9122;48.406;9.984;2023-07-20T01:44:21;1.63;;;1.52;;
17993;SDS011;9122;48.406;9.984;2023-07-20T01:47:05;3.28;;;2.00;;
17993;SDS011;9122;48.406;9.984;2023-07-20T01:49:49;1.88;;;1.77;;
17993;SDS011;9122;48.406;9.984;2023-07-20T01:52:34;5.63;;;2.13;;
17993;SDS011;9122;48.406;9.984;2023-07-20T01:55:18;2.08;;;1.98;;
17993;SDS011;9122;48.406;9.984;2023-07-20T01:58:03;2.30;;;2.05;;
17993;SDS011;9122;48.406;9.984;2023-07-20T02:00:47;4.10;;;1.85;;
17993;SDS011;9122;48.406;9.984;2023-07-20T02:03:32;2.63;;;2.50;;
17993;SDS011;9122;48.406;9.984;2023-07-20T02:06:16;3.38;;;1.83;;
17993;SDS011;9122;48.406;9.984;2023-07-20T02:09:01;2.10;;;1.90;;
17993;SDS011;9122;48.406;9.984;2023-07-20T02:11:45;3.22;;;2.35;;
17993;SDS011;9122;48.406;9.984;2023-07-20T02:14:30;3.28;;;1.95;;
17993;SDS011;9122;48.406;9.984;2023-07-20T02:17:14;3.20;;;2.28;;
17993;SDS011;9122;48.406;9.984;2023-07-20T02:19:58;2.00;;;1.85;;
17993;SDS011;9122;48.406;9.984;2023-07-20T02:22:42;1.80;;;1.70;;
17993;SDS011;9122;48.406;9.984;2023-07-20T02:25:26;2.33;;;2.13;;
17993;SDS011;9122;48.406;9.984;2023-07-20T02:28:14;2.25;;;2.00;;
17993;SDS011;9122;48.406;9.984;2023-07-20T02:30:59;2.05;;;1.95;;
17993;SDS011;9122;48.406;9.984;2023-07-20T02:33:44;3.30;;;2.30;;
17993;SDS011;9122;48.406;9.984;2023-07-20T02:36:28;2.38;;;1.90;;
17993;SDS011;9122;48.406;9.984;2023-07-20T02:39:13;2.80;;;2.13;;
17993;SDS011;9122;48.406;9.984;2023-07-20T02:41:57;3.67;;;2.08;;
17993;SDS011;9122;48.406;9.984;2023-07-20T02:44:41;2.30;;;2.10;;
17993;SDS011;9122;48.406;9.984;2023-07-20T02:47:26;2.50;;;2.30;;
17993;SDS011;9122;48.406;9.984;2023-07-20T02:50:10;3.20;;;2.22;;
17993;SDS011;9122;48.406;9.984;2023-07-20T02:52:57;2.05;;;1.77;;
17993;SDS011;9122;48.406;9.984;2023-07-20T02:55:41;2.15;;;1.95;;
17993;SDS011;9122;48.406;9.984;2023-07-20T02:58:26;3.50;;;2.25;;
17993;SDS011;9122;48.406;9.984;2023-07-20T03:01:10;2.13;;;1.98;;
17993;SDS011;9122;48.406;9.984;2023-07-20T03:03:56;6.95;;;2.53;;
17993;SDS011;9122;48.406;9.984;2023-07-20T03:06:40;2.17;;;1.98;;
17993;SDS011;9122;48.406;9.984;2023-07-20T03:09:25;3.53;;;2.30;;
17993;SDS011;9122;48.406;9.984;2023-07-20T03:12:09;2.45;;;2.28;;
17993;SDS011;9122;48.406;9.984;2023-07-20T03:14:54;4.00;;;2.30;;
17993;SDS011;9122;48.406;9.984;2023-07-20T03:17:40;2.90;;;2.70;;
17993;SDS011;9122;48.406;9.984;2023-07-20T03:20:25;2.28;;;1.70;;
17993;SDS011;9122;48.406;9.984;2023-07-20T03:23:09;5.93;;;2.25;;
17993;SDS011;9122;48.406;9.984;2023-07-20T03:25:53;2.65;;;2.20;;
17993;SDS011;9122;48.406;9.984;2023-07-20T03:28:38;4.85;;;2.47;;
17993;SDS011;9122;48.406;9.984;2023-07-20T03:31:22;6.20;;;2.65;;
17993;SDS011;9122;48.406;9.984;2023-07-20T03:34:07;2.65;;;1.85;;
17993;SDS011;9122;48.406;9.984;2023-07-20T03:36:52;3.10;;;2.90;;
17993;SDS011;9122;48.406;9.984;2023-07-20T03:39:36;3.47;;;2.72;;
17993;SDS011;9122;48.406;9.984;2023-07-20T03:42:20;4.28;;;2.47;;
17993;SDS011;9122;48.406;9.984;2023-07-20T03:45:05;3.28;;;2.30;;
17993;SDS011;9122;48.406;9.984;2023-07-20T03:47:50;3.70;;;1.92;;
17993;SDS011;9122;48.406;9.984;2023-07-20T03:50:34;3.90;;;2.70;;
17993;SDS011;9122;48.406;9.984;2023-07-20T03:53:19;2.47;;;2.28;;
17993;SDS011;9122;48.406;9.984;2023-07-20T03:56:04;2.20;;;1.88;;
17993;SDS011;9122;48.406;9.984;2023-07-20T03:58:48;2.10;;;2.00;;
17993;SDS011;9122;48.406;9.984;2023-07-20T04:01:33;2.78;;;2.50;;
17993;SDS011;9122;48.406;9.984;2023-07-20T04:04:20;3.50;;;2.30;;
17993;SDS011;9122;48.406;9.984;2023-07-20T04:07:05;2.20;;;2.10;;
17993;SDS011;9122;48.406;9.984;2023-07-20T04:09:51;2.28;;;2.17;;
17993;SDS011;9122;48.406;9.984;2023-07-20T04:12:35;4.05;;;2.42;;
17993;SDS011;9122;48.406;9.984;2023-07-20T04:15:19;2.22;;;2.13;;
17993;SDS011;9122;48.406;9.984;2023-07-20T04:18:04;4.65;;;2.30;;
17993;SDS011;9122;48.406;9.984;2023-07-20T04:20:48;2.70;;;2.50;;
17993;SDS011;9122;48.406;9.984;2023-07-20T04:23:32;3.55;;;2.22;;
17993;SDS011;9122;48.406;9.984;2023-07-20T04:26:17;3.30;;;2.45;;
17993;SDS011;9122;48.406;9.984;2023-07-20T04:29:01;4.97;;;3.25;;
17993;SDS011;9122;48.406;9.984;2023-07-20T04:31:45;2.63;;;2.42;;
17993;SDS011;9122;48.406;9.984;2023-07-20T04:34:29;6.00;;;3.05;;
17993;SDS011;9122;48.406;9.984;2023-07-20T04:37:13;2.85;;;2.28;;
17993;SDS011;9122;48.406;9.984;2023-07-20T04:39:58;4.80;;;2.58;;
17993;SDS011;9122;48.406;9.984;2023-07-20T04:42:43;3.22;;;2.30;;
17993;SDS011;9122;48.406;9.984;2023-07-20T04:45:27;2.20;;;2.05;;
17993;SDS011;9122;48.406;9.984;2023-07-20T04:48:11;2.38;;;2.17;;
17993;SDS011;9122;48.406;9.984;2023-07-20T04:50:58;3.85;;;2.65;;
17993;SDS011;9122;48.406;9.984;2023-07-20T04:53:42;5.38;;;2.58;;
17993;SDS011;9122;48.406;9.984;2023-07-20T04:56:26;2.60;;;2.40;;
17993;SDS011;9122;48.406;9.984;2023-07-20T04:59:10;5.85;;;3.05;;
17993;SDS011;9122;48.406;9.984;2023-07-20T05:01:54;7.25;;;2.20;;
17993;SDS011;9122;48.406;9.984;2023-07-20T05:04:38;5.97;;;2.40;;
17993;SDS011;9122;48.406;9.984;2023-07-20T05:07:23;4.50;;;2.67;;
17993;SDS011;9122;48.406;9.984;2023-07-20T05:10:07;3.97;;;2.20;;
17993;SDS011;9122;48.406;9.984;2023-07-20T05:12:52;4.93;;;2.70;;
17993;SDS011;9122;48.406;9.984;2023-07-20T05:15:37;3.50;;;2.60;;
17993;SDS011;9122;48.406;9.984;2023-07-20T05:18:21;5.10;;;2.45;;
17993;SDS011;9122;48.406;9.984;2023-07-20T05:21:06;3.47;;;2.80;;
17993;SDS011;9122;48.406;9.984;2023-07-20T05:23:51;2.45;;;2.25;;
17993;SDS011;9122;48.406;9.984;2023-07-20T05:26:36;2.97;;;2.78;;
17993;SDS011;9122;48.406;9.984;2023-07-20T05:29:21;5.90;;;2.92;;
17993;SDS011;9122;48.406;9.984;2023-07-20T05:32:06;3.95;;;2.88;;
17993;SDS011;9122;48.406;9.984;2023-07-20T05:34:53;3.00;;;2.70;;
17993;SDS011;9122;48.406;9.984;2023-07-20T05:37:37;4.10;;;2.55;;
17993;SDS011;9122;48.406;9.984;2023-07-20T05:40:22;2.55;;;2.38;;
17993;SDS011;9122;48.406;9.984;2023-07-20T05:43:06;3.08;;;2.47;;
17993;SDS011;9122;48.406;9.984;2023-07-20T05:45:51;2.90;;;2.33;;
17993;SDS011;9122;48.406;9.984;2023-07-20T05:48:35;2.28;;;2.05;;
17993;SDS011;9122;48.406;9.984;2023-07-20T05:51:20;2.97;;;2.75;;
17993;SDS011;9122;48.406;9.984;2023-07-20T05:54:04;2.53;;;2.30;;
17993;SDS011;9122;48.406;9.984;2023-07-20T05:56:48;3.33;;;2.63;;
17993;SDS011;9122;48.406;9.984;2023-07-20T05:59:32;3.15;;;2.70;;
17993;SDS011;9122;48.406;9.984;2023-07-20T06:02:17;4.05;;;2.50;;
17993;SDS011;9122;48.406;9.984;2023-07-20T06:05:02;2.47;;;2.28;;
17993;SDS011;9122;48.406;9.984;2023-07-20T06:07:46;3.47;;;2.08;;
17993;SDS011;9122;48.406;9.984;2023-07-20T06:10:31;3.38;;;2.60;;
17993;SDS011;9122;48.406;9.984;2023-07-20T06:13:15;2.25;;;2.05;;
17993;SDS011;9122;48.406;9.984;2023-07-20T06:15:59;2.83;;;1.88;;
17993;SDS011;9122;48.406;9.984;2023-07-20T06:18:43;4.22;;;2.67;;
17993;SDS011;9122;48.406;9.984;2023-07-20T06:21:29;3.95;;;2.17;;
17993;SDS011;9122;48.406;9.984;2023-07-20T06:24:13;2.40;;;1.92;;
17993;SDS011;9122;48.406;9.984;2023-07-20T06:26:58;4.63;;;2.38;;
17993;SDS011;9122;48.406;9.984;2023-07-20T06:29:42;2.15;;;1.95;;
17993;SDS011;9122;48.406;9.984;2023-07-20T06:32:26;2.28;;;2.08;;
17993;SDS011;9122;48.406;9.984;2023-07-20T06:35:11;2.33;;;1.50;;
17993;SDS011;9122;48.406;9.984;2023-07-20T06:37:55;3.72;;;2.17;;
17993;SDS011;9122;48.406;9.984;2023-07-20T06:40:40;5.05;;;2.35;;
17993;SDS011;9122;48.406;9.984;2023-07-20T06:43:24;4.28;;;2.65;;
17993;SDS011;9122;48.406;9.984;2023-07-20T06:46:08;1.83;;;1.73;;
17993;SDS011;9122;48.406;9.984;2023-07-20T06:48:53;2.10;;;1.90;;
17993;SDS011;9122;48.406;9.984;2023-07-20T06:51:38;2.60;;;2.40;;
17993;SDS011;9122;48.406;9.984;2023-07-20T06:54:22;2.78;;;2.25;;
17993;SDS011;9122;48.406;9.984;2023-07-20T06:57:07;3.72;;;2.13;;
17993;SDS011;9122;48.406;9.984;2023-07-20T06:59:51;2.20;;;1.58;;
17993;SDS011;9122;48.406;9.984;2023-07-20T07:02:35;3.97;;;2.33;;
17993;SDS011;9122;48.406;9.984;2023-07-20T07:05:19;2.08;;;1.95;;
17993;SDS011;9122;48.406;9.984;2023-07-20T07:08:07;2.00;;;1.90;;
17993;SDS011;9122;48.406;9.984;2023-07-20T07:10:52;2.30;;;2.10;;
17993;SDS011;9122;48.406;9.984;2023-07-20T07:13:36;1.70;;;1.60;;
17993;SDS011;9122;48.406;9.984;2023-07-20T07:16:21;2.58;;;2.42;;
17993;SDS011;9122;48.406;9.984;2023-07-20T07:19:05;2.15;;;1.70;;
17993;SDS011;9122;48.406;9.984;2023-07-20T07:21:51;2.15;;;1.98;;
17993;SDS011;9122;48.406;9.984;2023-07-20T07:24:36;4.20;;;2.95;;
17993;SDS011;9122;48.406;9.984;2023-07-20T07:27:20;2.88;;;2.33;;
17993;SDS011;9122;48.406;9.984;2023-07-20T07:30:04;2.90;;;2.70;;
17993;SDS011;9122;48.406;9.984;2023-07-20T07:32:49;2.00;;;1.90;;
17993;SDS011;9122;48.406;9.984;2023-07-20T07:35:34;2.65;;;2.45;;
17993;SDS011;9122;48.406;9.984;2023-07-20T07:38:18;2.42;;;2.13;;
17993;SDS011;9122;48.406;9.984;2023-07-20T07:41:03;1.58;;;1.35;;
17993;SDS011;9122;48.406;9.984;2023-07-20T07:43:47;6.07;;;1.75;;
17993;SDS011;9122;48.406;9.984;2023-07-20T07:46:31;2.00;;;1.85;;
17993;SDS011;9122;48.406;9.984;2023-07-20T07:49:16;2.92;;;1.77;;
17993;SDS011;9122;48.406;9.984;2023-07-20T07:52:02;2.33;;;2.13;;
17993;SDS011;9122;48.406;9.984;2023-07-20T07:54:47;1.70;;;1.60;;
17993;SDS011;9122;48.406;9.984;2023-07-20T07:57:31;2.05;;;1.88;;
17993;SDS011;9122;48.406;9.984;2023-07-20T08:00:16;1.85;;;1.75;;
17993;SDS011;9122;48.406;9.984;2023-07-20T08:03:02;2.47;;;2.28;;
17993;SDS011;9122;48.406;9.984;2023-07-20T08:05:47;2.10;;;2.00;;
17993;SDS011;9122;48.406;9.984;2023-07-20T08:08:32;2.42;;;1.98;;
17993;SDS011;9122;48.406;9.984;2023-07-20T08:11:16;2.95;;;1.70;;
17993;SDS011;9122;48.406;9.984;2023-07-20T08:14:02;1.92;;;1.83;;
17993;SDS011;9122;48.406;9.984;2023-07-20T08:16:46;1.95;;;1.50;;
17993;SDS011;9122;48.406;9.984;2023-07-20T08:19:31;2.33;;;2.13;;
17993;SDS011;9122;48.406;9.984;2023-07-20T08:22:15;1.90;;;1.80;;
17993;SDS011;9122;48.406;9.984;2023-07-20T08:25:00;2.28;;;1.98;;
17993;SDS011;9122;48.406;9.984;2023-07-20T08:27:44;2.17;;;1.98;;
17993;SDS011;9122;48.406;9.984;2023-07-20T08:30:41;4.00;;;2.05;;
17993;SDS011;9122;48.406;9.984;2023-07-20T08:33:26;7.70;;;2.40;;
17993;SDS011;9122;48.406;9.984;2023-07-20T08:36:13;2.30;;;1.98;;
17993;SDS011;9122;48.406;9.984;2023-07-20T08:38:58;2.20;;;2.03;;
17993;SDS011;9122;48.406;9.984;2023-07-20T08:41:42;2.90;;;1.83;;
17993;SDS011;9122;48.406;9.984;2023-07-20T08:44:27;2.13;;;2.03;;
17993;SDS011;9122;48.406;9.984;2023-07-20T08:47:14;1.58;;;1.48;;
17993;SDS011;9122;48.406;9.984;2023-07-20T08:50:00;1.70;;;1.60;;
17993;SDS011;9122;48.406;9.984;2023-07-20T08:52:50;1.80;;;1.70;;
17993;SDS011;9122;48.406;9.984;2023-07-20T08:55:36;3.75;;;1.98;;
17993;SDS011;9122;48.406;9.984;2023-07-20T08:58:20;1.67;;;1.58;;
17993;SDS011;9122;48.406;9.984;2023-07-20T09:01:07;2.75;;;1.88;;
17993;SDS011;9122;48.406;9.984;2023-07-20T09:03:51;1.90;;;1.80;;
17993;SDS011;9122;48.406;9.984;2023-07-20T09:06:36;2.15;;;1.67;;
17993;SDS011;9122;48.406;9.984;2023-07-20T09:09:20;1.70;;;1.60;;
17993;SDS011;9122;48.406;9.984;2023-07-20T09:12:04;2.10;;;2.00;;
17993;SDS011;9122;48.406;9.984;2023-07-20T09:14:49;1.98;;;1.80;;
17993;SDS011;9122;48.406;9.984;2023-07-20T09:17:33;2.60;;;1.60;;
17993;SDS011;9122;48.406;9.984;2023-07-20T09:20:18;2.45;;;1.80;;
17993;SDS011;9122;48.406;9.984;2023-07-20T09:23:06;1.98;;;1.88;;
17993;SDS011;9122;48.406;9.984;2023-07-20T09:25:50;2.00;;;1.90;;
17993;SDS011;9122;48.406;9.984;2023-07-20T09:28:47;1.80;;;1.70;;
17993;SDS011;9122;48.406;9.984;2023-07-20T09:31:33;1.50;;;1.40;;
17993;SDS011;9122;48.406;9.984;2023-07-20T09:34:18;1.63;;;1.50;;
17993;SDS011;9122;48.406;9.984;2023-07-20T09:37:03;2.17;;;1.38;;
17993;SDS011;9122;48.406;9.984;2023-07-20T09:39:48;4.45;;;1.30;;
17993;SDS011;9122;48.406;9.984;2023-07-20T09:42:35;3.88;;;1.67;;
17993;SDS011;9122;48.406;9.984;2023-07-20T09:45:21;1.65;;;1.52;;
17993;SDS011;9122;48.406;9.984;2023-07-20T09:48:06;1.38;;;1.27;;
17993;SDS011;9122;48.406;9.984;2023-07-20T09:50:50;1.58;;;1.40;;
17993;SDS011;9122;48.406;9.984;2023-07-20T09:53:36;2.83;;;1.80;;
17993;SDS011;9122;48.406;9.984;2023-07-20T09:56:21;1.17;;;1.10;;
17993;SDS011;9122;48.406;9.984;2023-07-20T09:59:07;1.30;;;1.20;;
17993;SDS011;9122;48.406;9.984;2023-07-20T10:01:52;1.42;;;1.33;;
17993;SDS011;9122;48.406;9.984;2023-07-20T10:04:40;2.40;;;1.55;;
17993;SDS011;9122;48.406;9.984;2023-07-20T10:07:25;1.48;;;1.38;;
17993;SDS011;9122;48.406;9.984;2023-07-20T10:10:11;1.20;;;1.17;;
17993;SDS011;9122;48.406;9.984;2023-07-20T10:12:58;1.40;;;1.27;;
17993;SDS011;9122;48.406;9.984;2023-07-20T10:16:07;1.58;;;1.48;;
17993;SDS011;9122;48.406;9.984;2023-07-20T10:19:05;1.50;;;1.40;;
17993;SDS011;9122;48.406;9.984;2023-07-20T10:22:19;1.90;;;1.80;;
17993;SDS011;9122;48.406;9.984;2023-07-20T10:25:10;3.35;;;1.45;;
17993;SDS011;9122;48.406;9.984;2023-07-20T10:27:54;3.17;;;1.30;;
17993;SDS011;9122;48.406;9.984;2023-07-20T10:30:40;1.55;;;1.40;;
17993;SDS011;9122;48.406;9.984;2023-07-20T10:33:26;3.78;;;1.90;;
17993;SDS011;9122;48.406;9.984;2023-07-20T10:36:10;1.70;;;1.52;;
17993;SDS011;9122;48.406;9.984;2023-07-20T10:38:56;1.50;;;1.40;;
17993;SDS011;9122;48.406;9.984;2023-07-20T10:41:41;1.40;;;1.30;;
17993;SDS011;9122;48.406;9.984;2023-07-20T10:44:25;3.45;;;1.52;;
17993;SDS011;9122;48.406;9.984;2023-07-20T10:47:10;2.33;;;2.10;;
17993;SDS011;9122;48.406;9.984;2023-07-20T10:49:59;2.92;;;1.77;;
17993;SDS011;9122;48.406;9.984;2023-07-20T10:52:49;4.32;;;1.90;;
17993;SDS011;9122;48.406;9.984;2023-07-20T10:55:48;1.80;;;1.70;;
17993;SDS011;9122;48.406;9.984;2023-07-20T10:58:55;1.50;;;1.40;;
17993;SDS011;9122;48.406;9.984;2023-07-20T11:01:43;1.48;;;1.38;;
17993;SDS011;9122;48.406;9.984;2023-07-20T11:04:39;1.63;;;1.52;;
17993;SDS011;9122;48.406;9.984;2023-07-20T11:07:37;2.03;;;1.80;;
17993;SDS011;9122;48.406;9.984;2023-07-20T11:10:22;1.48;;;1.38;;
17993;SDS011;9122;48.406;9.984;2023-07-20T11:13:25;1.83;;;1.65;;
17993;SDS011;9122;48.406;9.984;2023-07-20T11:16:10;1.92;;;1.83;;
17993;SDS011;9122;48.406;9.984;2023-07-20T11:18:55;1.40;;;1.40;;
17993;SDS011;9122;48.406;9.984;2023-07-20T11:21:40;2.13;;;2.03;;
17993;SDS011;9122;48.406;9.984;2023-07-20T11:24:27;1.67;;;1.58;;
17993;SDS011;9122;48.406;9.984;2023-07-20T11:27:11;1.38;;;1.30;;
17993;SDS011;9122;48.406;9.984;2023-07-20T11:29:56;3.25;;;2.03;;
17993;SDS011;9122;48.406;9.984;2023-07-20T11:32:47;2.22;;;1.25;;
17993;SDS011;9122;48.406;9.984;2023-07-20T11:35:35;1.30;;;1.20;;
17993;SDS011;9122;48.406;9.984;2023-07-20T11:38:20;1.75;;;1.65;;
17993;SDS011;9122;48.406;9.984;2023-07-20T11:41:05;1.85;;;1.30;;
17993;SDS011;9122;48.406;9.984;2023-07-20T11:43:49;1.23;;;1.13;;
17993;SDS011;9122;48.406;9.984;2023-07-20T11:46:34;1.35;;;1.25;;
17993;SDS011;9122;48.406;9.984;2023-07-20T11:49:18;1.30;;;1.25;;
17993;SDS011;9122;48.406;9.984;2023-07-20T11:52:03;1.88;;;1.40;;
17993;SDS011;9122;48.406;9.984;2023-07-20T11:54:52;1.50;;;1.40;;
17993;SDS011;9122;48.406;9.984;2023-07-20T11:57:36;1.98;;;1.77;;
17993;SDS011;9122;48.406;9.984;2023-07-20T12:00:24;1.67;;;1.58;;
17993;SDS011;9122;48.406;9.984;2023-07-20T12:03:09;1.75;;;1.65;;
17993;SDS011;9122;48.406;9.984;2023-07-20T12:05:56;1.55;;;1.45;;
17993;SDS011;9122;48.406;9.984;2023-07-20T12:08:50;2.08;;;1.77;;
17993;SDS011;9122;48.406;9.984;2023-07-20T12:11:37;1.90;;;1.65;;
17993;SDS011;9122;48.406;9.984;2023-07-20T12:14:25;1.95;;;1.45;;
17993;SDS011;9122;48.406;9.984;2023-07-20T12:17:09;1.98;;;1.52;;
17993;SDS011;9122;48.406;9.984;2023-07-20T12:19:56;1.48;;;1.35;;
17993;SDS011;9122;48.406;9.984;2023-07-20T12:22:43;1.75;;;1.65;;
17993;SDS011;9122;48.406;9.984;2023-07-20T12:25:40;2.67;;;1.77;;
17993;SDS011;9122;48.406;9.984;2023-07-20T12:28:27;1.73;;;1.63;;
17993;SDS011;9122;48.406;9.984;2023-07-20T12:31:12;1.35;;;1.30;;
17993;SDS011;9122;48.406;9.984;2023-07-20T12:33:57;1.40;;;1.30;;
17993;SDS011;9122;48.406;9.984;2023-07-20T12:36:42;2.08;;;1.60;;
17993;SDS011;9122;48.406;9.984;2023-07-20T12:39:26;2.17;;;1.33;;
17993;SDS011;9122;48.406;9.984;2023-07-20T12:42:10;1.67;;;1.58;;
17993;SDS011;9122;48.406;9.984;2023-07-20T12:44:54;1.67;;;1.58;;
17993;SDS011;9122;48.406;9.984;2023-07-20T12:47:38;1.70;;;1.60;;
17993;SDS011;9122;48.406;9.984;2023-07-20T12:50:22;2.95;;;1.52;;
17993;SDS011;9122;48.406;9.984;2023-07-20T12:53:06;1.83;;;1.73;;
17993;SDS011;9122;48.406;9.984;2023-07-20T12:55:51;2.25;;;2.05;;
17993;SDS011;9122;48.406;9.984;2023-07-20T12:58:35;3.05;;;1.65;;
17993;SDS011;9122;48.406;9.984;2023-07-20T13:01:20;1.20;;;1.20;;
17993;SDS011;9122;48.406;9.984;2023-07-20T13:04:04;1.58;;;1.48;;
17993;SDS011;9122;48.406;9.984;2023-07-20T13:06:48;2.22;;;1.63;;
17993;SDS011;9122;48.406;9.984;2023-07-20T13:09:32;1.50;;;1.40;;
17993;SDS011;9122;48.406;9.984;2023-07-20T13:12:17;1.60;;;1.50;;
17993;SDS011;9122;48.406;9.984;2023-07-20T13:15:02;1.50;;;1.40;;
17993;SDS011;9122;48.406;9.984;2023-07-20T13:17:49;1.77;;;1.58;;
17993;SDS011;9122;48.406;9.984;2023-07-20T13:20:34;1.08;;;1.08;;
17993;SDS011;9122;48.406;9.984;2023-07-20T13:23:18;1.60;;;1.50;;
17993;SDS011;9122;48.406;9.984;2023-07-20T13:26:04;2.00;;;1.58;;
17993;SDS011;9122;48.406;9.984;2023-07-20T13:28:48;1.35;;;1.15;;
17993;SDS011;9122;48.406;9.984;2023-07-20T13:31:33;1.35;;;1.25;;
17993;SDS011;9122;48.406;9.984;2023-07-20T13:34:17;1.75;;;1.65;;
17993;SDS011;9122;48.406;9.984;2023-07-20T13:37:01;3.33;;;1.55;;
17993;SDS011;9122;48.406;9.984;2023-07-20T13:39:46;1.27;;;1.17;;
17993;SDS011;9122;48.406;9.984;2023-07-20T13:42:30;1.75;;;1.65;;
17993;SDS011;9122;48.406;9.984;2023-07-20T13:45:16;2.25;;;1.70;;
17993;SDS011;9122;48.406;9.984;2023-07-20T13:48:01;2.38;;;1.33;;
17993;SDS011;9122;48.406;9.984;2023-07-20T13:50:46;1.20;;;1.20;;
17993;SDS011;9122;48.406;9.984;2023-07-20T13:53:31;1.48;;;1.38;;
17993;SDS011;9122;48.406;9.984;2023-07-20T13:56:15;3.20;;;1.92;;
17993;SDS011;9122;48.406;9.984;2023-07-20T13:59:00;1.17;;;1.15;;
17993;SDS011;9122;48.406;9.984;2023-07-20T14:01:44;1.70;;;1.60;;
17993;SDS011;9122;48.406;9.984;2023-07-20T14:04:29;1.50;;;1.40;;
17993;SDS011;9122;48.406;9.984;2023-07-20T14:07:14;2.35;;;1.48;;
17993;SDS011;9122;48.406;9.984;2023-07-20T14:09:58;1.40;;;1.30;;
17993;SDS011;9122;48.406;9.984;2023-07-20T14:12:43;1.60;;;1.50;;
17993;SDS011;9122;48.406;9.984;2023-07-20T14:15:28;1.50;;;1.40;;
17993;SDS011;9122;48.406;9.984;2023-07-20T14:18:12;1.60;;;1.50;;
17993;SDS011;9122;48.406;9.984;2023-07-20T14:20:57;1.40;;;1.30;;
17993;SDS011;9122;48.406;9.984;2023-07-20T14:23:41;1.50;;;1.40;;
17993;SDS011;9122;48.406;9.984;2023-07-20T14:26:25;5.78;;;1.35;;
17993;SDS011;9122;48.406;9.984;2023-07-20T14:29:09;1.70;;;1.60;;
17993;SDS011;9122;48.406;9.984;2023-07-20T14:31:54;3.70;;;2.00;;
17993;SDS011;9122;48.406;9.984;2023-07-20T14:34:38;1.48;;;1.38;;
17993;SDS011;9122;48.406;9.984;2023-07-20T14:37:24;1.98;;;1.88;;
17993;SDS011;9122;48.406;9.984;2023-07-20T14:40:08;1.50;;;1.42;;
17993;SDS011;9122;48.406;9.984;2023-07-20T14:42:54;1.58;;;1.48;;
17993;SDS011;9122;48.406;9.984;2023-07-20T14:45:44;1.75;;;1.65;;
17993;SDS011;9122;48.406;9.984;2023-07-20T14:48:29;1.52;;;1.42;;
17993;SDS011;9122;48.406;9.984;2023-07-20T14:51:13;1.60;;;1.50;;
17993;SDS011;9122;48.406;9.984;2023-07-20T14:53:57;3.25;;;1.85;;
17993;SDS011;9122;48.406;9.984;2023-07-20T14:56:48;1.45;;;1.45;;
17993;SDS011;9122;48.406;9.984;2023-07-20T14:59:36;1.63;;;1.52;;
17993;SDS011;9122;48.406;9.984;2023-07-20T15:02:20;2.28;;;1.63;;
17993;SDS011;9122;48.406;9.984;2023-07-20T15:05:06;2.25;;;1.92;;
17993;SDS011;9122;48.406;9.984;2023-07-20T15:07:51;1.58;;;1.48;;
17993;SDS011;9122;48.406;9.984;2023-07-20T15:10:36;3.60;;;1.92;;
17993;SDS011;9122;48.406;9.984;2023-07-20T15:13:21;1.55;;;1.40;;
17993;SDS011;9122;48.406;9.984;2023-07-20T15:16:06;2.47;;;1.42;;
17993;SDS011;9122;48.406;9.984;2023-07-20T15:18:50;1.77;;;1.67;;
17993;SDS011;9122;48.406;9.984;2023-07-20T15:21:34;2.05;;;1.60;;
17993;SDS011;9122;48.406;9.984;2023-07-20T15:24:19;1.45;;;1.35;;
17993;SDS011;9122;48.406;9.984;2023-07-20T15:27:03;3.88;;;1.55;;
17993;SDS011;9122;48.406;9.984;2023-07-20T15:29:50;1.50;;;1.40;;
17993;SDS011;9122;48.406;9.984;2023-07-20T15:32:44;1.52;;;1.42;;
17993;SDS011;9122;48.406;9.984;2023-07-20T15:35:29;1.85;;;1.75;;
17993;SDS011;9122;48.406;9.984;2023-07-20T15:38:13;1.45;;;1.35;;
17993;SDS011;9122;48.406;9.984;2023-07-20T15:40:58;1.58;;;1.48;;
17993;SDS011;9122;48.406;9.984;2023-07-20T15:43:45;2.40;;;1.40;;
17993;SDS011;9122;48.406;9.984;2023-07-20T15:49:24;1.88;;;1.73;;
17993;SDS011;9122;48.406;9.984;2023-07-20T15:52:09;3.58;;;1.50;;
17993;SDS011;9122;48.406;9.984;2023-07-20T15:54:55;1.30;;;1.30;;
17993;SDS011;9122;48.406;9.984;2023-07-20T15:57:39;1.58;;;1.45;;
17993;SDS011;9122;48.406;9.984;2023-07-20T16:00:24;3.00;;;1.73;;
17993;SDS011;9122;48.406;9.984;2023-07-20T16:03:09;1.85;;;1.40;;
17993;SDS011;9122;48.406;9.984;2023-07-20T16:05:54;2.30;;;1.85;;
17993;SDS011;9122;48.406;9.984;2023-07-20T16:08:39;1.30;;;1.20;;
17993;SDS011;9122;48.406;9.984;2023-07-20T16:11:24;5.75;;;2.00;;
17993;SDS011;9122;48.406;9.984;2023-07-20T16:14:08;1.73;;;1.63;;
17993;SDS011;9122;48.406;9.984;2023-07-20T16:16:53;1.50;;;1.40;;
17993;SDS011;9122;48.406;9.984;2023-07-20T16:19:37;1.42;;;1.42;;
17993;SDS011;9122;48.406;9.984;2023-07-20T16:22:21;1.50;;;1.40;;
17993;SDS011;9122;48.406;9.984;2023-07-20T16:25:05;2.33;;;1.80;;
17993;SDS011;9122;48.406;9.984;2023-07-20T16:27:52;1.60;;;1.48;;
17993;SDS011;9122;48.406;9.984;2023-07-20T16:30:36;1.67;;;1.58;;
17993;SDS011;9122;48.406;9.984;2023-07-20T16:33:20;1.60;;;1.50;;
17993;SDS011;9122;48.406;9.984;2023-07-20T16:36:08;1.27;;;1.27;;
17993;SDS011;9122;48.406;9.984;2023-07-20T16:38:54;1.20;;;1.20;;
17993;SDS011;9122;48.406;9.984;2023-07-20T16:41:38;1.88;;;1.70;;
17993;SDS011;9122;48.406;9.984;2023-07-20T16:44:22;2.88;;;1.50;;
17993;SDS011;9122;48.406;9.984;2023-07-20T16:47:06;1.70;;;1.60;;
17993;SDS011;9122;48.406;9.984;2023-07-20T16:49:52;3.45;;;3.15;;
17993;SDS011;9122;48.406;9.984;2023-07-20T16:52:36;1.80;;;1.65;;
17993;SDS011;9122;48.406;9.984;2023-07-20T16:55:20;2.83;;;2.63;;
17993;SDS011;9122;48.406;9.984;2023-07-20T16:58:04;1.80;;;1.70;;
17993;SDS011;9122;48.406;9.984;2023-07-20T17:00:49;1.67;;;1.58;;
17993;SDS011;9122;48.406;9.984;2023-07-20T17:03:34;1.73;;;1.60;;
17993;SDS011;9122;48.406;9.984;2023-07-20T17:06:19;1.60;;;1.50;;
17993;SDS011;9122;48.406;9.984;2023-07-20T17:09:04;2.03;;;1.92;;